Time;durP1;ratioP1;P1;durP2;ratioP2;P2;SDS_P1;SDS_P2;PMS_P1;PMS_P2;Temp;Humidity;BMP_temperature;BMP_pressure;BME280_temperature;BME280_humidity;BME280_pressure;Samples;Min_cycle;Max_cycle;Signal;HPM_P1;HPM_P2
2021/12/13 00:00:55;;;;;;;17.52;8.40;;;12.40;99.90;;;12.71;95.46;102331.47;5113836;28;20044;-76
2021/12/13 00:03:35;;;;;;;23.50;8.23;;;12.40;99.90;;;12.69;95.03;102335.88;5113794;28;20047;-75
2021/12/13 00:06:10;;;;;;;14.40;7.55;;;12.40;99.90;;;12.70;95.04;102316.41;5114057;28;20047;-73
2021/12/13 00:08:53;;;;;;;14.77;6.60;;;12.40;99.90;;;12.68;94.86;102334.09;5113699;28;20130;-73
2021/12/13 00:11:26;;;;;;;13.07;6.45;;;12.40;99.90;;;12.62;94.98;102334.91;5113669;28;20077;-73
2021/12/13 00:13:59;;;;;;;12.75;6.63;;;12.40;99.90;;;12.67;94.75;102334.97;5113781;28;20047;-73
2021/12/13 00:16:33;;;;;;;11.75;6.13;;;12.40;99.90;;;12.67;94.76;102337.63;5113620;28;20040;-73
2021/12/13 00:19:08;;;;;;;10.40;5.72;;;12.40;99.90;;;12.53;94.60;102318.00;5095578;28;20139;-73
2021/12/13 00:21:42;;;;;;;10.05;5.65;;;12.30;99.90;;;12.63;94.54;102330.50;5113760;28;20052;-73
2021/12/13 00:24:17;;;;;;;12.20;5.85;;;12.30;99.90;;;12.62;94.30;102326.06;5113477;28;20044;-73
2021/12/13 00:26:49;;;;;;;8.15;5.32;;;12.30;99.90;;;12.66;93.73;102342.03;5094881;28;20055;-73
2021/12/13 00:29:20;;;;;;;13.60;6.38;;;12.30;99.90;;;12.58;93.82;102334.88;5113604;28;20088;-73
2021/12/13 00:32:01;;;;;;;11.82;5.35;;;12.30;99.90;;;12.60;93.85;102327.84;5113623;28;20473;-73
2021/12/13 00:34:35;;;;;;;12.02;5.45;;;12.30;99.90;;;12.59;94.11;102328.69;5113650;28;20112;-73
2021/12/13 00:37:12;;;;;;;9.75;5.00;;;12.30;99.90;;;12.56;94.08;102339.28;5113598;28;20039;-73
2021/12/13 00:39:49;;;;;;;10.65;5.97;;;12.30;99.90;;;12.55;94.06;102327.78;5113589;28;20058;-73
2021/12/13 00:42:20;;;;;;;11.23;5.35;;;12.30;99.90;;;12.56;93.82;102329.53;5113048;28;20435;-73
2021/12/13 00:44:53;;;;;;;6.60;4.97;;;12.30;99.90;;;12.64;93.50;102327.84;5113238;28;20050;-73
2021/12/13 00:47:28;;;;;;;11.38;5.45;;;12.30;99.90;;;12.62;93.40;102321.63;5112895;28;20051;-72
2021/12/13 00:50:04;;;;;;;6.68;5.43;;;12.30;99.90;;;12.59;93.20;102334.00;5113429;28;20083;-73
2021/12/13 00:52:34;;;;;;;11.95;5.47;;;12.30;99.90;;;12.55;93.22;102337.50;5113270;28;20451;-73
2021/12/13 00:55:12;;;;;;;9.13;5.40;;;12.30;99.90;;;12.52;93.49;102353.41;5113117;28;20047;-73
2021/12/13 00:57:44;;;;;;;9.05;5.90;;;12.20;99.90;;;12.34;93.24;102313.38;5113031;28;20097;-73
2021/12/13 01:00:23;;;;;;;11.13;5.53;;;12.20;99.90;;;12.54;92.96;102347.19;5095017;28;20416;-73
2021/12/13 01:02:58;;;;;;;8.75;5.32;;;12.20;99.90;;;12.57;92.93;102341.06;5113304;28;20052;-73
2021/12/13 01:05:57;;;;;;;11.73;5.90;;;12.30;99.90;;;12.59;92.22;102345.50;5113271;28;20054;-73
2021/12/13 01:09:31;;;;;;;7.45;5.22;;;12.30;99.90;;;12.62;91.96;102352.59;5112983;28;20096;-73
2021/12/13 01:12:06;;;;;;;8.68;5.40;;;12.30;99.90;;;12.62;91.50;102361.47;5030213;28;20049;-73
2021/12/13 01:14:54;;;;;;;8.20;5.43;;;12.30;99.90;;;12.70;91.34;102340.31;5030125;28;20077;-73
2021/12/13 01:17:40;;;;;;;7.25;5.57;;;12.40;99.90;;;12.68;91.21;102348.25;5082765;28;20063;-73
2021/12/13 01:20:16;;;;;;;12.82;6.60;;;12.40;99.90;;;12.74;91.23;102346.56;5112713;28;20052;-73
2021/12/13 01:22:50;;;;;;;12.68;6.82;;;12.40;99.90;;;12.83;90.80;102344.88;5113045;28;20195;-73
2021/12/13 01:25:45;;;;;;;10.85;6.40;;;12.50;99.90;;;12.87;90.15;102343.16;5112889;28;20463;-73
2021/12/13 01:28:23;;;;;;;9.25;6.47;;;12.60;99.90;;;12.90;90.09;102354.69;5112925;28;20147;-73
2021/12/13 01:30:58;;;;;;;8.35;5.97;;;12.60;99.90;;;12.89;89.74;102357.34;5112520;28;20553;-73
2021/12/13 01:33:30;;;;;;;9.23;6.28;;;12.60;99.90;;;12.97;89.71;102356.50;5112528;28;20046;-73
2021/12/13 01:36:03;;;;;;;11.02;6.53;;;12.70;99.90;;;13.02;89.11;102360.13;5112602;28;20114;-73
2021/12/13 01:38:37;;;;;;;12.00;6.07;;;12.80;99.90;;;13.03;89.17;102364.56;5112587;28;20043;-73
2021/12/13 01:41:09;;;;;;;12.90;7.40;;;12.80;99.90;;;13.02;88.83;102365.44;5112625;28;20044;-73
2021/12/13 01:43:44;;;;;;;9.77;7.47;;;12.80;99.90;;;13.06;88.81;102359.31;5112567;28;20051;-73
2021/12/13 01:46:12;;;;;;;11.90;7.50;;;12.80;99.90;;;13.11;88.88;102359.34;5112755;28;20052;-73
2021/12/13 01:48:45;;;;;;;8.77;7.82;;;12.80;99.90;;;13.06;88.56;102350.44;5112450;28;20055;-73
2021/12/13 01:51:19;;;;;;;12.40;8.30;;;12.80;99.90;;;13.02;88.57;102354.81;5112849;28;20447;-73
2021/12/13 01:53:54;;;;;;;15.18;9.02;;;12.80;99.90;;;12.88;88.62;102342.25;5112522;28;20074;-73
2021/12/13 01:56:40;;;;;;;11.05;8.18;;;12.70;99.90;;;13.04;88.94;102366.38;5116149;28;20040;-73
2021/12/13 01:59:40;;;;;;;12.00;8.43;;;12.80;99.90;;;12.98;88.92;102368.94;5116373;28;20050;-73
2021/12/13 02:02:22;;;;;;;10.45;8.48;;;12.70;99.90;;;13.03;88.84;102375.19;5116131;28;20080;-73
2021/12/13 02:05:09;;;;;;;15.15;9.40;;;12.70;99.90;;;12.48;88.23;102267.53;5116174;28;20398;-73
2021/12/13 02:07:45;;;;;;;11.90;9.07;;;12.80;99.90;;;13.08;88.58;102376.16;5115890;28;20068;-73
2021/12/13 02:10:21;;;;;;;11.93;9.52;;;12.80;99.90;;;13.13;88.12;102370.88;5115878;28;20065;-73
2021/12/13 02:12:56;;;;;;;17.50;10.40;;;12.90;99.90;;;13.17;88.21;102372.69;5115966;28;20043;-72
2021/12/13 02:18:22;;;;;;;15.00;10.88;;;12.80;99.90;;;13.01;88.57;102373.38;5115670;28;20433;-73
2021/12/13 02:21:02;;;;;;;16.95;10.82;;;12.70;99.90;;;12.99;88.65;102376.00;5115630;28;20044;-73
2021/12/13 02:23:38;;;;;;;14.18;10.70;;;12.70;99.90;;;12.99;88.73;102375.16;5115903;28;20088;-73
2021/12/13 02:26:08;;;;;;;14.20;10.77;;;12.70;99.90;;;13.00;88.54;102375.16;5115540;28;20055;-73
2021/12/13 02:28:41;;;;;;;14.90;11.30;;;12.70;99.90;;;12.96;88.44;102378.66;5115778;28;20055;-73
2021/12/13 02:31:14;;;;;;;13.73;10.93;;;12.70;99.90;;;12.92;88.86;102376.84;5115398;28;20044;-73
2021/12/13 02:33:49;;;;;;;15.80;11.82;;;12.60;99.90;;;12.99;88.54;102389.28;5115773;28;20039;-73
2021/12/13 02:36:21;;;;;;;13.02;11.52;;;12.70;99.90;;;13.01;88.44;102386.66;5115331;28;20047;-73
2021/12/13 02:38:54;;;;;;;23.60;12.10;;;12.70;99.90;;;12.94;88.21;102376.84;5115517;28;20458;-73
2021/12/13 02:41:26;;;;;;;12.80;10.80;;;12.70;99.90;;;12.93;88.06;102381.25;5115420;28;20443;-73
2021/12/13 02:44:00;;;;;;;13.05;11.15;;;12.70;99.90;;;12.94;88.32;102385.72;5115185;28;20135;-73
2021/12/13 02:46:28;;;;;;;15.55;12.38;;;12.70;99.90;;;12.84;88.62;102381.19;5115123;28;20451;-73
2021/12/13 02:49:03;;;;;;;15.88;12.60;;;12.60;99.90;;;12.93;88.44;102388.38;5115173;28;20143;-73
2021/12/13 02:51:39;;;;;;;18.70;12.95;;;12.60;99.90;;;12.92;88.38;102383.91;5114974;28;20078;-72
2021/12/13 02:54:16;;;;;;;14.98;12.70;;;12.60;99.90;;;12.93;88.31;102378.59;5096816;28;20048;-73
2021/12/13 02:56:50;;;;;;;16.73;12.50;;;12.60;99.90;;;13.01;88.37;102378.69;5096919;28;20545;-72
2021/12/13 02:59:21;;;;;;;16.20;13.35;;;12.70;99.90;;;13.00;88.05;102384.88;5096871;28;20075;-72
2021/12/13 03:01:58;;;;;;;15.48;13.23;;;12.70;99.90;;;12.91;88.32;102376.84;5114803;28;20047;-72
2021/12/13 03:04:30;;;;;;;16.80;12.85;;;12.70;99.90;;;12.91;88.33;102387.44;5114868;28;20059;-72
2021/12/13 03:07:05;;;;;;;14.63;12.50;;;12.70;99.90;;;12.84;88.51;102377.63;5114732;28;20496;-73
2021/12/13 03:09:38;;;;;;;14.70;13.00;;;12.60;99.90;;;12.79;88.30;102382.91;5096676;28;20537;-72
2021/12/13 03:12:10;;;;;;;13.55;11.82;;;12.50;99.90;;;12.71;88.70;102381.94;5114943;28;20116;-72
2021/12/13 03:14:44;;;;;;;16.40;13.38;;;12.50;99.90;;;12.76;88.72;102372.22;5096457;28;20039;-72
2021/12/13 03:17:18;;;;;;;14.65;12.40;;;12.50;99.90;;;12.65;88.56;102356.19;5114822;28;20073;-72
2021/12/13 03:20:04;;;;;;;15.30;12.10;;;12.40;99.90;;;12.62;89.09;102371.19;5096411;28;20055;-72
2021/12/13 03:23:27;;;;;;;15.32;13.30;;;12.30;99.90;;;12.56;88.92;102365.84;5114470;28;20463;-72
2021/12/13 03:26:26;;;;;;;14.70;12.23;;;12.30;99.90;;;12.51;89.08;102355.16;5012377;28;20479;-72
2021/12/13 03:29:12;;;;;;;13.63;11.77;;;12.30;99.90;;;12.49;89.06;102356.91;5114277;28;20443;-72
2021/12/13 03:31:49;;;;;;;14.65;11.20;;;12.20;99.90;;;12.47;89.12;102365.69;5114519;28;20043;-72
2021/12/13 03:34:23;;;;;;;13.82;12.32;;;12.20;99.90;;;12.50;89.19;102365.75;5114395;28;20130;-72
2021/12/13 03:36:59;;;;;;;13.85;12.43;;;12.20;99.90;;;12.50;89.07;102368.41;5114154;28;20050;-72
2021/12/13 03:39:32;;;;;;;16.15;12.20;;;12.20;99.90;;;12.58;88.79;102361.44;5096102;28;20058;-72
2021/12/13 03:42:08;;;;;;;14.00;12.48;;;12.30;99.90;;;12.58;88.68;102358.78;5114057;28;20092;-72
2021/12/13 03:44:41;;;;;;;14.60;11.57;;;12.30;99.90;;;12.56;88.52;102355.22;5095977;28;20048;-72
2021/12/13 03:47:14;;;;;;;14.35;11.88;;;12.30;99.90;;;12.52;88.44;102353.41;5113986;28;20456;-72
2021/12/13 03:49:49;;;;;;;11.30;10.10;;;12.20;99.90;;;12.50;88.01;102349.84;5113730;28;20150;-72
2021/12/13 03:52:23;;;;;;;16.88;10.98;;;12.20;99.90;;;12.58;88.13;102345.50;5114436;28;20553;-72
2021/12/13 03:54:55;;;;;;;13.50;10.27;;;12.30;99.90;;;12.56;87.54;102353.44;5113708;28;20036;-72
2021/12/13 03:57:31;;;;;;;14.07;10.63;;;12.30;99.90;;;12.46;87.63;102348.00;5113789;28;20403;-72
2021/12/13 04:00:00;;;;;;;12.30;10.90;;;12.30;99.90;;;12.60;87.39;102359.69;5113924;28;20032;-72
2021/12/13 04:02:34;;;;;;;12.50;10.07;;;12.40;99.90;;;12.64;87.07;102353.50;5113679;28;20511;-72
2021/12/13 04:05:09;;;;;;;13.52;11.13;;;12.40;99.90;;;12.72;86.76;102354.47;5113640;28;20058;-72
2021/12/13 04:07:44;;;;;;;14.50;10.07;;;12.40;99.90;;;12.56;86.91;102333.97;5113731;28;20048;-72
2021/12/13 04:10:19;;;;;;;11.50;9.90;;;12.40;99.90;;;12.65;86.75;102350.91;5095508;28;20048;-72
2021/12/13 04:12:52;;;;;;;11.77;10.43;;;12.40;99.90;;;12.69;86.62;102346.50;5113803;28;20473;-72
2021/12/13 04:15:30;;;;;;;13.98;10.15;;;12.40;99.90;;;12.66;86.34;102347.34;5113344;28;20046;-72
2021/12/13 04:18:14;;;;;;;15.30;9.93;;;12.40;99.90;;;12.50;86.36;102339.22;5113020;28;20090;-72
2021/12/13 04:20:44;;;;;;;17.00;9.93;;;12.40;99.90;;;12.58;86.33;102337.53;5113600;28;20104;-72
2021/12/13 04:23:15;;;;;;;;;;;12.30;99.90;;;12.59;86.23;102349.91;5114004;28;20105;-72
2021/12/13 04:25:50;;;;;;;11.35;9.25;;;12.40;99.90;;;12.59;86.28;102358.78;5113360;28;19931;-72
2021/12/13 04:28:26;;;;;;;18.95;9.52;;;12.30;99.90;;;12.61;86.33;102359.69;5113525;28;20039;-72
2021/12/13 04:31:03;;;;;;;12.50;9.30;;;12.40;99.90;;;12.62;86.16;102350.84;5113291;28;20047;-72
2021/12/13 04:33:35;;;;;;;11.68;9.27;;;12.30;99.90;;;12.57;85.77;102352.56;5113198;28;20039;-72
2021/12/13 04:36:09;;;;;;;13.82;9.30;;;12.40;99.90;;;12.59;86.10;102355.22;5113065;28;20043;-72
2021/12/13 04:38:48;;;;;;;13.68;8.82;;;12.30;99.90;;;12.61;85.81;102358.78;5113099;28;20463;-72
2021/12/13 04:41:25;;;;;;;9.95;8.63;;;12.30;99.90;;;12.62;85.81;102360.56;5113155;28;20046;-72
2021/12/13 04:44:04;;;;;;;13.23;9.05;;;12.30;99.90;;;12.58;85.50;102358.78;5113160;28;20043;-72
2021/12/13 04:46:35;;;;;;;13.38;8.75;;;12.30;99.90;;;12.62;85.55;102361.47;5113022;28;20065;-72
2021/12/13 04:49:09;;;;;;;9.60;8.57;;;12.40;99.90;;;12.68;85.43;102357.97;5113177;28;20048;-72
2021/12/13 04:51:43;;;;;;;10.65;8.80;;;12.40;99.90;;;12.76;85.10;102363.38;5113041;28;20051;-72
2021/12/13 04:54:13;;;;;;;13.02;9.57;;;12.50;99.90;;;12.70;84.84;102353.56;5112989;28;20119;-72
2021/12/13 04:56:43;;;;;;;11.73;9.40;;;12.50;99.90;;;12.69;84.56;102362.44;5112965;28;20077;-72
2021/12/13 04:59:16;;;;;;;12.38;9.30;;;12.40;99.90;;;12.68;84.74;102355.31;5113235;28;20085;-72
2021/12/13 05:01:47;;;;;;;10.63;9.35;;;12.50;99.90;;;12.67;84.70;102356.22;5112868;28;20048;-72
2021/12/13 05:04:18;;;;;;;11.65;9.18;;;12.40;99.90;;;12.72;84.53;102354.47;5112818;28;20073;-72
2021/12/13 05:06:46;;;;;;;10.25;8.52;;;12.40;99.90;;;12.68;84.28;102352.66;5112787;28;20048;-72
2021/12/13 05:09:20;;;;;;;11.35;8.65;;;12.40;99.90;;;12.66;84.25;102359.72;5112816;28;20559;-70
2021/12/13 05:11:53;;;;;;;12.60;9.07;;;12.40;99.90;;;12.64;84.08;102365.03;5112823;28;20047;-72
2021/12/13 05:14:33;;;;;;;11.60;8.88;;;12.50;99.90;;;12.61;84.38;102372.97;5112756;28;20035;-70
2021/12/13 05:17:10;;;;;;;13.15;9.32;;;12.40;99.90;;;12.67;84.54;102382.75;5113271;28;20044;-70
2021/12/13 05:19:45;;;;;;;10.45;9.23;;;12.40;99.90;;;12.67;84.33;102378.34;5112783;28;20047;-70
2021/12/13 05:22:17;;;;;;;12.75;8.88;;;12.40;99.90;;;12.74;84.07;102368.66;5112599;28;20447;-72
2021/12/13 05:24:49;;;;;;;11.55;9.25;;;12.50;99.90;;;12.70;83.80;102375.72;5113063;28;20044;-72
2021/12/13 05:27:28;;;;;;;12.48;9.15;;;12.50;99.90;;;12.68;83.73;102387.19;5112715;28;20051;-73
2021/12/13 05:30:15;;;;;;;14.30;8.85;;;12.40;99.90;;;12.75;83.80;102383.75;5114772;28;20092;-72
2021/12/13 05:32:48;;;;;;;12.70;8.93;;;12.50;99.90;;;12.74;83.43;102379.28;5098504;28;20069;-73
2021/12/13 05:35:22;;;;;;;10.73;8.10;;;12.50;99.90;;;12.63;83.50;102375.63;5116664;28;20048;-72
2021/12/13 05:37:54;;;;;;;13.52;8.43;;;12.50;99.90;;;12.82;83.18;102369.66;5116843;28;20048;-72
2021/12/13 05:40:26;;;;;;;12.85;8.55;;;12.60;99.90;;;12.85;82.89;102369.69;5098491;28;20093;-72
2021/12/13 05:42:59;;;;;;;10.80;8.20;;;12.60;99.90;;;12.80;82.77;102362.53;5116433;28;20047;-72
2021/12/13 05:45:36;;;;;;;14.05;8.55;;;12.60;99.90;;;12.83;82.39;102368.78;5117737;28;20047;-72
2021/12/13 05:48:12;;;;;;;11.35;8.55;;;12.50;99.90;;;12.77;82.65;102368.72;5119208;28;20043;-71
2021/12/13 05:50:45;;;;;;;9.50;8.45;;;12.50;99.90;;;12.72;82.48;102382.81;5117169;28;20040;-71
2021/12/13 05:53:20;;;;;;;10.73;8.73;;;12.50;99.90;;;12.70;82.49;102369.50;5116512;28;20098;-72
2021/12/13 05:55:57;;;;;;;11.60;8.68;;;12.40;99.90;;;12.66;82.50;102367.69;5118632;28;20035;-72
2021/12/13 05:58:38;;;;;;;14.38;8.98;;;12.40;99.90;;;12.62;82.46;102372.06;5120375;28;20039;-71
2021/12/13 06:01:16;;;;;;;10.80;8.05;;;12.40;99.90;;;12.56;82.71;102382.63;5117440;28;20040;-72
2021/12/13 06:03:57;;;;;;;10.45;8.68;;;12.30;99.90;;;12.52;83.19;102366.66;5116280;28;20036;-72
2021/12/13 06:06:28;;;;;;;15.10;10.63;;;12.30;99.90;;;12.29;83.30;102354.88;5116196;28;20092;-72
2021/12/13 06:08:58;;;;;;;13.88;10.52;;;12.20;99.90;;;12.38;83.67;102373.56;5115920;28;20501;-72
2021/12/13 06:11:33;;;;;;;14.80;10.25;;;12.10;99.90;;;12.34;83.88;102369.97;5097815;28;20052;-72
2021/12/13 06:14:16;;;;;;;13.80;10.13;;;12.10;99.90;;;12.37;83.87;102380.63;5115792;28;20050;-72
2021/12/13 06:17:01;;;;;;;10.85;9.75;;;12.10;99.90;;;12.33;84.00;102375.28;5115646;28;20036;-72
2021/12/13 06:19:34;;;;;;;14.27;10.27;;;12.10;99.90;;;12.31;84.21;102383.19;5115987;28;20051;-72
2021/12/13 06:22:10;;;;;;;12.75;9.88;;;12.10;99.90;;;12.36;84.61;102383.25;5115888;28;20051;-72
2021/12/13 06:24:42;;;;;;;13.73;10.55;;;12.10;99.90;;;12.32;84.47;102381.44;5115847;28;20043;-72
2021/12/13 06:27:17;;;;;;;14.27;11.13;;;12.10;99.90;;;12.28;84.69;102376.97;5115522;28;20058;-72
2021/12/13 06:29:59;;;;;;;12.15;10.85;;;12.10;99.90;;;12.31;84.86;102385.84;5115696;28;20051;-72
2021/12/13 06:32:45;;;;;;;15.88;11.13;;;12.10;99.90;;;12.35;84.79;102387.69;5115431;28;20096;-72
2021/12/13 06:35:39;;;;;;;14.25;10.95;;;12.10;99.90;;;12.39;84.82;102386.84;5115357;28;20163;-72
2021/12/13 06:38:44;;;;;;;15.52;11.82;;;12.10;99.90;;;12.44;84.59;102381.59;5115301;28;20043;-72
2021/12/13 06:41:32;;;;;;;15.07;11.75;;;12.20;99.90;;;12.39;84.65;102380.63;5114997;28;20054;-72
2021/12/13 06:44:04;;;;;;;15.55;11.68;;;12.20;99.90;;;12.34;84.80;102385.00;5115511;28;20051;-72
2021/12/13 06:46:51;;;;;;;14.55;11.80;;;12.10;99.90;;;12.37;84.58;102383.28;5115184;28;20040;-72
2021/12/13 06:49:30;;;;;;;15.88;11.82;;;12.10;99.90;;;12.36;84.58;102384.16;5096802;28;20059;-72
2021/12/13 06:52:01;;;;;;;17.92;12.65;;;12.10;99.90;;;12.25;84.66;102385.78;5115000;28;20477;-71
2021/12/13 06:54:38;;;;;;;17.92;13.02;;;12.10;99.90;;;12.32;84.96;102387.66;5115217;28;20050;-70
2021/12/13 06:57:12;;;;;;;19.05;13.77;;;12.10;99.90;;;12.35;84.63;102387.69;5115139;28;20126;-69
2021/12/13 06:59:50;;;;;;;15.85;12.63;;;12.10;99.90;;;12.30;84.54;102391.16;5114867;28;20062;-70
2021/12/13 07:02:23;;;;;;;15.75;12.07;;;12.10;99.90;;;12.31;84.86;102382.34;5115333;28;20058;-71
2021/12/13 07:05:02;;;;;;;17.58;12.82;;;12.00;99.90;;;12.28;84.62;102396.44;5114716;28;20048;-71
2021/12/13 07:07:35;;;;;;;16.73;12.50;;;12.00;99.90;;;12.27;84.62;102394.63;5114576;28;20051;-72
2021/12/13 07:10:11;;;;;;;16.55;13.10;;;12.00;99.90;;;12.23;84.60;102402.56;5114925;28;20051;-71
2021/12/13 07:12:51;;;;;;;18.95;13.30;;;12.00;99.90;;;12.28;84.82;102406.16;5114876;28;20496;-71
2021/12/13 07:15:31;;;;;;;19.55;13.85;;;12.00;99.90;;;12.20;84.84;102408.72;5114877;28;20058;-72
2021/12/13 07:18:14;;;;;;;17.77;13.48;;;12.00;99.90;;;12.20;85.26;102407.81;5114483;28;20044;-69
2021/12/13 07:20:49;;;;;;;19.85;14.43;;;12.00;99.90;;;12.20;85.29;102405.16;5114366;28;20043;-69
2021/12/13 07:23:19;;;;;;;18.65;13.88;;;12.00;99.90;;;11.99;85.52;102383.63;5114472;28;20043;-69
2021/12/13 07:25:55;;;;;;;19.60;14.38;;;11.90;99.90;;;12.22;85.15;102416.69;5114314;28;20036;-69
2021/12/13 07:28:35;;;;;;;21.88;14.05;;;12.00;99.90;;;11.65;85.00;102316.88;5114582;28;20435;-69
2021/12/13 07:31:07;;;;;;;22.23;13.68;;;12.00;99.90;;;12.24;85.03;102430.84;5114598;28;20098;-69
2021/12/13 07:33:40;;;;;;;19.83;13.95;;;12.00;99.90;;;12.11;84.72;102437.78;5114255;28;20043;-70
2021/12/13 07:36:22;;;;;;;19.23;14.30;;;12.00;99.90;;;12.23;84.97;102432.59;5114032;28;20043;-69
2021/12/13 07:38:56;;;;;;;18.10;14.00;;;12.00;99.90;;;12.23;84.79;102431.75;5114156;28;20122;-69
2021/12/13 07:41:28;;;;;;;17.85;13.25;;;12.00;99.90;;;12.22;84.81;102432.59;5114104;28;20393;-69
2021/12/13 07:43:56;;;;;;;18.95;13.27;;;12.00;99.90;;;12.15;84.87;102433.38;5114164;28;20146;-69
2021/12/13 07:46:30;;;;;;;20.52;13.77;;;11.90;99.90;;;12.18;84.83;102441.38;5113779;28;20463;-69
2021/12/13 07:49:01;;;;;;;22.25;14.75;;;12.00;99.90;;;12.17;85.00;102442.25;5113603;28;20073;-69
2021/12/13 07:51:35;;;;;;;20.50;13.77;;;11.90;99.90;;;12.24;84.75;102436.16;5113369;28;20131;-69
2021/12/13 07:54:09;;;;;;;22.40;13.65;;;12.00;99.90;;;12.18;84.64;102444.94;5113725;28;20096;-69
2021/12/13 07:56:48;;;;;;;24.65;14.50;;;12.00;99.90;;;12.24;84.81;102446.78;5095684;28;20048;-69
2021/12/13 07:59:24;;;;;;;21.25;14.65;;;12.00;99.90;;;12.13;84.61;102435.13;5113793;28;20051;-69
2021/12/13 08:01:59;;;;;;;16.83;13.07;;;12.00;99.90;;;12.16;84.86;102449.31;5113685;28;20043;-69
2021/12/13 08:04:32;;;;;;;20.40;14.05;;;12.00;99.90;;;12.20;84.58;102439.63;5113614;28;20052;-69
2021/12/13 08:07:14;;;;;;;17.90;13.30;;;12.00;99.90;;;12.03;84.38;102430.56;5095589;28;20054;-69
2021/12/13 08:09:46;;;;;;;18.15;13.40;;;12.00;99.90;;;12.11;84.56;102434.22;5095531;28;20055;-69
2021/12/13 08:12:22;;;;;;;20.23;14.05;;;11.90;99.90;;;12.07;84.61;102435.94;5113490;28;20447;-69
2021/12/13 08:15:11;;;;;;;20.27;13.35;;;11.90;99.90;;;12.06;84.62;102438.56;5113464;28;20051;-69
2021/12/13 08:17:45;;;;;;;16.08;12.05;;;11.90;99.90;;;12.10;84.44;102437.75;5113399;28;20093;-69
2021/12/13 08:20:22;;;;;;;18.42;11.93;;;11.90;99.90;;;12.04;84.46;102435.00;5113409;28;20062;-69
2021/12/13 08:22:54;;;;;;;19.77;14.10;;;11.80;99.90;;;11.88;84.40;102409.13;5113530;28;20056;-69
2021/12/13 08:25:27;;;;;;;18.77;12.70;;;11.80;99.90;;;11.92;84.66;102426.88;5113597;28;20043;-69
2021/12/13 08:27:59;;;;;;;18.95;13.50;;;11.80;99.90;;;12.07;84.70;102432.38;5113307;28;20409;-70
2021/12/13 08:30:32;;;;;;;17.10;13.55;;;11.80;99.90;;;12.06;84.68;102441.22;5113256;28;20039;-69
2021/12/13 08:33:09;;;;;;;17.98;13.23;;;11.80;99.90;;;12.06;84.73;102436.78;5113227;28;20043;-69
2021/12/13 08:35:54;;;;;;;20.58;13.95;;;11.80;99.90;;;12.09;84.77;102443.91;5113245;28;20047;-69
2021/12/13 08:38:39;;;;;;;19.10;14.57;;;11.90;99.90;;;11.99;84.98;102434.94;5112962;28;20039;-69
2021/12/13 08:41:22;;;;;;;19.77;13.80;;;11.80;99.90;;;12.06;84.93;102451.84;5112916;28;20077;-70
2021/12/13 08:43:56;;;;;;;20.02;13.63;;;11.90;99.90;;;12.06;84.93;102439.44;5113340;28;20048;-69
2021/12/13 08:46:35;;;;;;;22.02;14.45;;;11.80;99.90;;;12.08;84.94;102450.09;5095032;28;20048;-69
2021/12/13 08:49:17;;;;;;;17.40;13.25;;;11.90;99.90;;;12.06;85.13;102452.72;5113011;28;20069;-69
2021/12/13 08:52:01;;;;;;;18.48;13.65;;;11.90;99.90;;;12.15;84.86;102457.28;5113184;28;20126;-69
2021/12/13 08:54:54;;;;;;;19.05;13.88;;;11.90;99.90;;;12.04;84.56;102435.88;5113307;28;20051;-68
2021/12/13 08:57:49;;;;;;;22.67;14.88;;;11.90;99.90;;;12.08;84.45;102448.31;5094708;28;20059;-69
2021/12/13 09:00:47;;;;;;;22.73;15.98;;;12.00;99.90;;;12.18;84.77;102474.13;5112952;28;20427;-69
2021/12/13 09:03:29;;;;;;;17.45;14.50;;;12.00;99.90;;;12.32;84.49;102474.31;5114102;28;20427;-68
2021/12/13 09:06:13;;;;;;;21.27;15.75;;;12.10;99.90;;;12.36;84.42;102478.78;5099117;28;20044;-69
2021/12/13 09:08:46;;;;;;;23.88;15.80;;;12.10;99.90;;;12.33;84.38;102484.06;5098654;28;20098;-69
2021/12/13 09:11:25;;;;;;;23.30;16.85;;;12.10;99.90;;;11.67;84.50;102373.44;5117197;28;20047;-69
2021/12/13 09:13:59;;;;;;;21.60;15.73;;;12.10;99.90;;;12.33;84.45;102497.34;5116905;28;20093;-70
2021/12/13 09:16:40;;;;;;;21.90;16.23;;;12.10;99.90;;;12.47;84.37;102503.72;5116985;28;20039;-69
2021/12/13 09:19:16;;;;;;;25.17;16.45;;;12.20;99.90;;;12.49;84.08;102507.28;5116878;28;20057;-70
2021/12/13 09:21:55;;;;;;;23.45;16.17;;;12.20;99.90;;;12.52;83.99;102510.88;5116803;28;20043;-69
2021/12/13 09:24:30;;;;;;;23.10;16.50;;;12.30;99.90;;;12.62;84.18;102512.78;5116735;28;20452;-70
2021/12/13 09:27:37;;;;;;;23.35;16.08;;;12.30;99.90;;;12.63;83.92;102519.91;5116732;28;20054;-69
2021/12/13 09:30:33;;;;;;;24.33;17.08;;;12.40;99.90;;;12.79;83.82;102526.31;5104768;28;20103;-69
2021/12/13 09:33:11;;;;;;;24.13;17.08;;;12.50;99.90;;;12.85;83.49;102526.38;5116592;28;20043;-69
2021/12/13 09:35:44;;;;;;;22.85;16.10;;;12.60;99.90;;;12.90;83.47;102529.06;5098236;28;20142;-69
2021/12/13 09:38:31;;;;;;;19.67;15.60;;;12.60;99.90;;;12.91;83.38;102541.50;5116207;28;20052;-70
2021/12/13 09:41:08;;;;;;;25.70;16.70;;;12.60;99.90;;;12.93;83.16;102547.72;5116713;28;20054;-69
2021/12/13 09:43:45;;;;;;;25.23;17.02;;;12.70;99.90;;;12.89;82.97;102545.91;5098317;28;20054;-69
2021/12/13 09:46:19;;;;;;;24.45;16.23;;;12.70;99.90;;;12.82;83.02;102547.56;5116719;28;20052;-70
2021/12/13 09:48:52;;;;;;;22.00;15.73;;;12.60;99.90;;;12.88;82.81;102539.69;5116708;28;20055;-69
2021/12/13 09:51:30;;;;;;;20.83;16.00;;;12.60;99.90;;;13.00;82.82;102544.25;5118079;28;20043;-69
2021/12/13 09:54:07;;;;;;;27.90;17.10;;;12.70;99.90;;;12.90;82.72;102548.56;5118680;28;20059;-69
2021/12/13 09:56:49;;;;;;;23.38;15.98;;;12.70;99.90;;;12.85;82.96;102542.31;5120279;28;20039;-69
2021/12/13 09:59:27;;;;;;;24.13;16.42;;;12.60;99.90;;;12.84;83.11;102547.59;5116163;28;20435;-69
2021/12/13 10:02:05;;;;;;;21.58;16.77;;;12.50;99.90;;;12.89;83.02;102535.28;5097958;28;20089;-69
2021/12/13 10:04:38;;;;;;;22.38;17.20;;;12.60;99.90;;;12.86;83.39;102536.13;5116190;28;20441;-69
2021/12/13 10:07:11;;;;;;;24.25;16.65;;;12.60;99.90;;;12.81;82.88;102526.31;5116155;28;20077;-69
2021/12/13 10:09:44;;;;;;;25.80;17.90;;;12.50;99.90;;;12.88;83.20;102537.03;5115886;28;20047;-69
2021/12/13 10:12:20;;;;;;;28.20;18.83;;;12.60;99.90;;;12.87;82.98;102537.03;5116063;28;20067;-69
2021/12/13 10:14:54;;;;;;;25.90;18.48;;;12.60;99.90;;;12.82;83.17;102538.72;5115089;28;20400;-69
2021/12/13 10:17:28;;;;;;;28.30;18.58;;;12.50;99.90;;;12.85;83.43;102544.97;5115668;28;20485;-69
2021/12/13 10:20:05;;;;;;;27.92;18.55;;;12.60;99.90;;;12.80;83.22;102535.13;5115714;28;20047;-69
2021/12/13 10:22:35;;;;;;;30.75;19.23;;;12.60;99.90;;;12.78;83.40;102544.84;5115669;28;20058;-69
2021/12/13 10:25:10;;;;;;;27.52;18.77;;;12.50;99.90;;;12.72;83.68;102552.75;5116226;28;20119;-69
2021/12/13 10:27:39;;;;;;;32.75;19.70;;;12.50;99.90;;;12.70;83.79;102542.09;5115787;28;20104;-69
2021/12/13 10:30:20;;;;;;;26.05;18.88;;;12.40;99.90;;;12.65;83.79;102535.84;5115484;28;20067;-70
2021/12/13 10:32:50;;;;;;;28.30;19.17;;;12.40;99.90;;;12.69;84.09;102549.19;5115524;28;20097;-70
2021/12/13 10:35:27;;;;;;;29.05;19.67;;;12.40;99.90;;;12.59;84.14;102541.06;5097324;28;20130;-71
2021/12/13 10:38:01;;;;;;;26.73;19.25;;;12.40;99.90;;;12.65;84.35;102541.16;5115533;28;20044;-69
2021/12/13 10:40:38;;;;;;;29.85;19.10;;;12.40;99.90;;;12.54;84.05;102540.97;5115313;28;20474;-69
2021/12/13 10:43:10;;;;;;;28.73;19.00;;;12.40;99.90;;;12.52;84.62;102534.75;5115300;28;20404;-69
2021/12/13 10:45:45;;;;;;;29.35;20.25;;;12.30;99.90;;;12.52;84.80;102533.88;5115554;28;20097;-70